Time;durP1;ratioP1;P1;durP2;ratioP2;P2;SDS_P1;SDS_P2;PMS_P1;PMS_P2;Temp;Humidity;BMP_temperature;BMP_pressure;BME280_temperature;BME280_humidity;BME280_pressure;Samples;Min_cycle;Max_cycle;Signal;HPM_P1;HPM_P2
2022/01/20 00:01:42;;;;;;;24.77;22.95;;;4.80;96.40;;;;;;5006768;28;20034;-76
2022/01/20 00:04:16;;;;;;;24.83;22.75;;;4.80;96.50;;;;;;5006919;28;20030;-75
2022/01/20 00:28:26;;;;;;;27.08;25.27;;;4.50;96.70;;;;;;5008034;28;20095;-74
2022/01/20 00:31:09;;;;;;;27.92;25.95;;;4.50;96.70;;;;;;5007833;28;20415;-75
2022/01/20 00:33:42;;;;;;;27.55;25.67;;;4.40;96.70;;;;;;5006778;28;20033;-76
2022/01/20 00:38:36;;;;;;;28.10;26.35;;;4.40;96.80;;;;;;5007723;28;20026;-75
2022/01/20 00:41:04;;;;;;;29.58;27.08;;;4.40;96.80;;;;;;5007609;28;20575;-75
2022/01/20 00:43:30;;;;;;;30.63;28.08;;;4.40;97.10;;;;;;4959655;28;1387036;-75
2022/01/20 00:45:56;;;;;;;30.70;28.45;;;4.40;96.90;;;;;;5007510;28;20037;-75
2022/01/20 00:48:22;;;;;;;28.50;26.25;;;4.40;97.00;;;;;;5007220;28;20112;-75
2022/01/20 00:50:48;;;;;;;;;;;4.30;97.00;;;;;;5007325;28;20034;-76
2022/01/20 00:53:14;;;;;;;28.67;26.67;;;4.30;97.00;;;;;;5008413;28;20275;-75
2022/01/20 00:55:40;;;;;;;27.90;26.30;;;4.30;96.90;;;;;;5006895;28;20092;-75
2022/01/20 00:58:06;;;;;;;28.95;26.90;;;4.30;97.00;;;;;;5008208;28;20493;-75
2022/01/20 01:00:32;;;;;;;;;;;4.30;97.00;;;;;;5007199;28;20033;-75
2022/01/20 01:02:58;;;;;;;25.98;24.08;;;4.30;97.10;;;;;;5007002;28;19909;-75
2022/01/20 01:05:26;;;;;;;28.35;26.50;;;4.30;97.00;;;;;;5008124;28;20022;-75
2022/01/20 01:07:54;;;;;;;29.75;27.80;;;4.30;97.10;;;;;;5006788;28;20121;-75
2022/01/20 01:10:29;;;;;;;31.48;29.10;;;4.30;97.20;;;;;;5007959;28;20029;-76
2022/01/20 01:13:01;;;;;;;29.90;27.75;;;4.30;97.30;;;;;;5008496;28;20022;-75
2022/01/20 01:15:34;;;;;;;30.83;28.73;;;4.30;97.30;;;;;;5008002;28;20028;-75
2022/01/20 01:23:12;;;;;;;28.70;26.80;;;4.30;97.40;;;;;;5006719;28;20480;-76
2022/01/20 01:25:37;;;;;;;27.55;25.70;;;4.40;97.50;;;;;;5006930;28;20487;-75
2022/01/20 01:28:03;;;;;;;28.85;26.77;;;4.40;97.60;;;;;;5007824;28;20030;-75
2022/01/20 01:30:59;;;;;;;28.85;26.88;;;4.30;97.60;;;;;;5007773;28;20619;-75
2022/01/20 01:33:17;;;;;;;29.17;26.58;;;4.40;97.60;;;;;;5005397;28;20030;-75
2022/01/20 01:35:43;;;;;;;30.67;28.40;;;4.30;97.60;;;;;;5006517;28;20080;-75
2022/01/20 01:40:38;;;;;;;32.20;29.95;;;4.30;97.70;;;;;;5012126;28;20037;-75
2022/01/20 01:43:12;;;;;;;31.85;29.40;;;4.30;97.70;;;;;;5011713;28;20022;-75
2022/01/20 01:45:40;;;;;;;30.73;28.50;;;4.30;97.70;;;;;;5011792;28;20497;-75
2022/01/20 01:48:07;;;;;;;30.45;28.67;;;4.30;97.70;;;;;;5010650;28;20539;-76
2022/01/20 01:50:33;;;;;;;32.28;29.98;;;4.30;97.70;;;;;;5010349;28;20042;-76
2022/01/20 01:53:04;;;;;;;32.88;30.48;;;4.30;97.70;;;;;;4994062;28;20047;-75
2022/01/20 01:55:32;;;;;;;30.45;28.42;;;4.30;97.80;;;;;;5011488;28;20038;-75
2022/01/20 01:57:57;;;;;;;30.92;28.65;;;4.30;97.80;;;;;;5010325;28;20053;-76
2022/01/20 02:00:23;;;;;;;31.50;29.48;;;4.30;97.80;;;;;;5010299;28;20261;-76
2022/01/20 02:02:49;;;;;;;31.10;29.35;;;4.30;97.80;;;;;;5011402;28;20042;-76
2022/01/20 02:05:17;;;;;;;32.35;30.38;;;4.30;97.80;;;;;;5010214;28;20045;-75
2022/01/20 02:20:54;;;;;;;32.60;30.15;;;4.10;97.90;;;;;;5011061;28;20041;-75
2022/01/20 02:23:21;;;;;;;31.48;29.15;;;4.10;98.00;;;;;;5011223;28;20038;-76
2022/01/20 02:25:47;;;;;;;31.23;29.02;;;4.10;98.10;;;;;;5009797;28;20121;-75
2022/01/20 02:28:13;;;;;;;30.50;28.50;;;4.10;98.20;;;;;;5009678;28;20034;-76
2022/01/20 02:30:44;;;;;;;31.25;28.92;;;4.10;98.20;;;;;;5009505;28;20473;-75
2022/01/20 02:33:16;;;;;;;31.02;28.73;;;4.10;98.20;;;;;;5009622;28;20037;-75
2022/01/20 02:35:47;;;;;;;29.90;27.88;;;4.10;98.30;;;;;;5010788;28;20026;-75
2022/01/20 02:38:19;;;;;;;30.52;28.92;;;4.10;98.30;;;;;;5010779;28;20025;-75
2022/01/20 02:45:58;;;;;;;30.40;28.23;;;4.20;98.50;;;;;;5010676;28;19920;-76
2022/01/20 02:48:25;;;;;;;30.50;28.40;;;4.20;98.40;;;;;;5010676;28;20030;-76
2022/01/20 02:50:50;;;;;;;31.45;29.42;;;4.20;98.40;;;;;;5010072;28;20034;-75
2022/01/20 02:53:16;;;;;;;31.20;29.30;;;4.20;98.50;;;;;;5009198;28;20029;-75
2022/01/20 02:55:42;;;;;;;31.17;28.45;;;4.30;98.60;;;;;;5009199;28;20034;-76
2022/01/20 02:58:08;;;;;;;30.27;27.77;;;4.40;98.70;;;;;;5008929;28;20472;-76
2022/01/20 03:00:34;;;;;;;29.80;27.02;;;4.50;98.70;;;;;;5010375;28;20061;-75
2022/01/20 03:03:01;;;;;;;27.67;26.00;;;4.70;98.70;;;;;;5009050;28;20481;-76
2022/01/20 03:05:30;;;;;;;26.05;24.65;;;4.80;98.70;;;;;;5009059;28;20026;-75
2022/01/20 03:07:56;;;;;;;27.75;25.70;;;4.90;98.50;;;;;;5008838;28;20030;-76
2022/01/20 03:10:22;;;;;;;26.75;25.27;;;4.90;98.40;;;;;;5008849;28;20029;-75
2022/01/20 03:12:47;;;;;;;27.15;25.05;;;4.90;98.30;;;;;;5010081;28;20500;-75
2022/01/20 03:15:13;;;;;;;27.45;25.83;;;4.90;98.30;;;;;;5008810;28;20109;-76
2022/01/20 03:17:39;;;;;;;27.13;25.10;;;4.90;98.40;;;;;;5009184;28;20034;-75
2022/01/20 03:20:05;;;;;;;26.80;24.50;;;4.90;98.40;;;;;;5008951;28;20045;-76
2022/01/20 03:22:31;;;;;;;27.30;24.95;;;4.90;98.40;;;;;;4992709;28;20133;-76
2022/01/20 03:24:58;;;;;;;26.33;24.55;;;4.90;98.40;;;;;;5008944;28;20113;-76
2022/01/20 03:27:24;;;;;;;26.67;25.08;;;4.80;98.40;;;;;;5008717;28;20076;-76
2022/01/20 03:29:50;;;;;;;27.80;26.08;;;4.80;98.60;;;;;;5009926;28;20243;-75
2022/01/20 03:32:15;;;;;;;29.02;26.60;;;4.70;98.40;;;;;;5009722;28;20030;-75
2022/01/20 03:34:41;;;;;;;26.63;25.10;;;4.70;98.40;;;;;;4992216;28;20476;-75
2022/01/20 03:37:07;;;;;;;30.02;27.73;;;4.60;98.40;;;;;;5008482;28;20026;-76
2022/01/20 03:39:33;;;;;;;28.75;26.80;;;4.50;98.30;;;;;;5008542;28;20045;-75
2022/01/20 03:41:59;;;;;;;;;;;4.50;98.40;;;;;;5009885;28;20042;-75
2022/01/20 03:44:25;;;;;;;27.50;25.58;;;4.40;98.50;;;;;;5009614;28;19921;-75
2022/01/20 03:46:51;;;;;;;;;;;4.30;98.40;;;;;;5009982;28;20109;-75
2022/01/20 03:49:32;;;;;;;28.08;25.95;;;4.30;98.50;;;;;;5008305;28;20387;-75
2022/01/20 03:51:58;;;;;;;30.63;27.75;;;4.20;98.40;;;;;;5009483;28;20087;-75
2022/01/20 03:54:24;;;;;;;30.38;28.27;;;4.20;98.50;;;;;;5008139;28;20026;-75
2022/01/20 03:56:50;;;;;;;30.35;28.50;;;4.10;98.60;;;;;;5009426;28;20042;-76
2022/01/20 03:59:15;;;;;;;31.05;28.88;;;4.10;98.60;;;;;;5008050;28;20077;-75
2022/01/20 04:01:41;;;;;;;29.73;27.70;;;4.10;98.70;;;;;;5008448;28;20463;-75
2022/01/20 04:04:07;;;;;;;30.83;29.15;;;4.10;98.80;;;;;;4991571;28;20480;-75
2022/01/20 04:06:33;;;;;;;30.23;27.88;;;4.10;98.80;;;;;;5007883;28;20049;-75
2022/01/20 04:08:59;;;;;;;30.02;28.33;;;4.10;98.80;;;;;;5007835;28;20034;-76
2022/01/20 04:11:28;;;;;;;31.23;29.20;;;4.10;98.80;;;;;;5008877;28;20049;-75
2022/01/20 04:13:54;;;;;;;30.00;28.23;;;4.10;98.80;;;;;;5009334;28;20037;-75
2022/01/20 04:17:15;;;;;;;32.13;29.65;;;4.00;98.70;;;;;;5008985;28;20050;-75
2022/01/20 04:19:16;;;;;;;30.15;27.77;;;4.00;98.80;;;;;;5005803;28;20026;-76
2022/01/20 04:21:42;;;;;;;29.80;28.20;;;3.90;98.80;;;;;;5008816;28;20029;-75
2022/01/20 04:24:08;;;;;;;30.17;28.30;;;3.90;98.80;;;;;;5007624;28;20046;-75
2022/01/20 04:26:35;;;;;;;31.45;29.52;;;3.90;98.80;;;;;;5007451;28;20035;-75
2022/01/20 04:29:03;;;;;;;30.83;28.92;;;3.80;98.80;;;;;;5007468;28;20105;-75
2022/01/20 04:31:30;;;;;;;30.65;28.77;;;3.80;98.90;;;;;;5007449;28;20475;-75
2022/01/20 04:33:58;;;;;;;30.88;28.95;;;3.80;98.90;;;;;;5007396;28;20030;-75
2022/01/20 04:36:25;;;;;;;32.88;30.10;;;3.80;99.00;;;;;;5007236;28;20469;-75
2022/01/20 04:38:51;;;;;;;31.00;28.85;;;3.70;99.00;;;;;;5008528;28;20461;-75
2022/01/20 04:41:17;;;;;;;30.42;28.63;;;3.70;99.00;;;;;;5007058;28;20129;-76
2022/01/20 04:43:43;;;;;;;31.15;29.17;;;3.70;99.00;;;;;;5007065;28;20496;-75
2022/01/20 04:46:20;;;;;;;31.85;29.67;;;3.70;99.00;;;;;;5008558;28;20055;-75
2022/01/20 04:59:24;;;;;;;30.20;28.27;;;3.60;99.20;;;;;;5008368;28;20044;-75
2022/01/20 05:01:50;;;;;;;29.75;27.85;;;3.50;99.20;;;;;;5006932;28;20400;-75
2022/01/20 05:04:16;;;;;;;31.38;29.13;;;3.50;99.20;;;;;;5007025;28;20495;-75
2022/01/20 05:06:44;;;;;;;31.15;29.00;;;3.50;99.20;;;;;;5008012;28;20030;-75
2022/01/20 05:09:18;;;;;;;32.65;30.00;;;3.50;99.30;;;;;;5006929;28;20037;-75
2022/01/20 05:11:49;;;;;;;31.40;29.05;;;3.60;99.30;;;;;;5006848;28;20026;-75
2022/01/20 05:14:15;;;;;;;29.63;27.77;;;3.60;99.30;;;;;;5006903;28;20026;-76
2022/01/20 05:16:40;;;;;;;29.30;27.30;;;3.60;99.40;;;;;;5006972;28;20465;-74
2022/01/20 05:19:06;;;;;;;31.02;28.80;;;3.60;99.40;;;;;;5008057;28;20105;-75
2022/01/20 05:21:32;;;;;;;29.90;28.05;;;3.60;99.40;;;;;;5006548;28;20129;-75
2022/01/20 05:23:58;;;;;;;29.35;27.08;;;3.60;99.50;;;;;;5007977;28;20113;-75
2022/01/20 05:26:24;;;;;;;30.50;28.05;;;3.60;99.50;;;;;;5006653;28;20059;-76
2022/01/20 05:28:49;;;;;;;30.00;28.20;;;3.60;99.50;;;;;;5006786;28;20041;-75
2022/01/20 05:31:15;;;;;;;29.95;28.13;;;3.60;99.50;;;;;;5006358;28;20124;-75
2022/01/20 05:33:41;;;;;;;28.33;26.83;;;3.60;99.50;;;;;;5008196;28;20407;-75
2022/01/20 05:36:07;;;;;;;30.13;27.85;;;3.60;99.60;;;;;;5006755;28;20026;-75
2022/01/20 05:38:33;;;;;;;28.60;26.40;;;3.60;99.70;;;;;;5006628;28;20026;-75
2022/01/20 05:40:58;;;;;;;28.95;27.40;;;3.60;99.80;;;;;;5006529;28;20121;-75
2022/01/20 05:43:24;;;;;;;29.92;27.40;;;3.60;99.80;;;;;;5006278;28;20041;-75
2022/01/20 05:45:50;;;;;;;29.80;27.98;;;3.70;99.80;;;;;;5006565;28;20040;-75
2022/01/20 05:48:17;;;;;;;31.98;29.40;;;3.60;99.80;;;;;;5006340;28;20061;-75
2022/01/20 05:50:44;;;;;;;30.00;28.05;;;3.70;99.80;;;;;;5006470;28;20025;-76
2022/01/20 05:53:11;;;;;;;29.77;27.65;;;3.70;99.80;;;;;;5007519;28;20033;-75
2022/01/20 05:55:37;;;;;;;;;;;3.60;99.80;;;;;;5008134;28;20018;-75
2022/01/20 05:58:07;;;;;;;28.30;26.40;;;3.60;99.70;;;;;;5006319;28;19916;-75
2022/01/20 06:00:35;;;;;;;31.17;28.60;;;3.60;99.60;;;;;;5006026;28;20030;-75
2022/01/20 06:05:46;;;;;;;28.90;26.95;;;3.60;99.70;;;;;;5008053;28;20064;-75
2022/01/20 06:08:12;;;;;;;30.27;28.35;;;3.50;99.70;;;;;;5007496;28;20065;-75
2022/01/20 06:10:38;;;;;;;29.60;27.23;;;3.50;99.80;;;;;;5005959;28;20109;-75
2022/01/20 06:13:04;;;;;;;29.17;27.23;;;3.50;99.80;;;;;;5007447;28;20469;-75
2022/01/20 06:15:30;;;;;;;29.95;28.05;;;3.50;99.80;;;;;;5007266;28;20553;-75
2022/01/20 06:17:56;;;;;;;31.15;28.75;;;3.50;99.80;;;;;;5005854;28;20029;-75
2022/01/20 06:20:22;;;;;;;32.55;29.30;;;3.50;99.80;;;;;;5007078;28;20148;-75
2022/01/20 06:22:48;;;;;;;29.00;27.02;;;3.50;99.80;;;;;;5006701;28;20480;-75
2022/01/20 06:25:13;;;;;;;29.40;26.88;;;3.50;99.80;;;;;;5008561;28;20094;-75
2022/01/20 06:27:39;;;;;;;28.90;27.02;;;3.50;99.80;;;;;;5011613;28;20311;-76
2022/01/20 06:30:06;;;;;;;28.00;26.38;;;3.50;99.90;;;;;;5011120;28;20038;-76
2022/01/20 06:32:33;;;;;;;28.80;26.50;;;3.40;99.90;;;;;;5010912;28;20022;-75
2022/01/20 06:34:59;;;;;;;27.90;25.65;;;3.40;99.90;;;;;;5010817;28;20032;-76
2022/01/20 06:37:25;;;;;;;28.65;26.75;;;3.40;99.90;;;;;;5010640;28;20458;-76
2022/01/20 06:39:50;;;;;;;27.80;25.95;;;3.40;99.90;;;;;;5009535;28;20030;-75
2022/01/20 06:42:16;;;;;;;28.52;26.52;;;3.40;99.90;;;;;;5009569;28;20036;-75
2022/01/20 06:44:43;;;;;;;28.80;26.58;;;3.40;99.90;;;;;;5010591;28;20053;-75
2022/01/20 06:47:08;;;;;;;;;;;3.30;99.90;;;;;;5011285;28;20097;-75
2022/01/20 06:49:35;;;;;;;27.35;25.20;;;3.30;99.90;;;;;;5010493;28;20371;-75
2022/01/20 06:52:01;;;;;;;29.73;27.35;;;3.30;99.90;;;;;;5008856;28;20034;-75
2022/01/20 06:54:27;;;;;;;29.80;26.98;;;3.20;99.80;;;;;;5010293;28;20080;-72
2022/01/20 06:56:53;;;;;;;;;;;3.20;99.90;;;;;;5010637;28;20049;-75
2022/01/20 06:59:18;;;;;;;28.40;26.35;;;3.20;99.90;;;;;;5010038;28;19963;-75
2022/01/20 07:01:46;;;;;;;28.17;26.13;;;3.20;99.80;;;;;;5010229;28;20108;-75
2022/01/20 07:04:13;;;;;;;30.17;27.52;;;3.20;99.90;;;;;;5010280;28;20084;-75
2022/01/20 07:06:40;;;;;;;28.15;26.25;;;3.20;99.90;;;;;;5008910;28;20109;-75
2022/01/20 07:09:10;;;;;;;29.52;27.20;;;3.20;99.90;;;;;;5009696;28;20428;-75
2022/01/20 07:11:37;;;;;;;30.17;27.85;;;3.20;99.90;;;;;;5009440;28;20030;-75
2022/01/20 07:14:03;;;;;;;29.83;26.88;;;3.10;99.90;;;;;;5008424;28;20036;-75
2022/01/20 07:16:29;;;;;;;28.80;26.30;;;3.10;99.90;;;;;;5008380;28;20376;-76
2022/01/20 07:18:55;;;;;;;30.00;27.27;;;3.10;99.90;;;;;;5008276;28;20030;-75
2022/01/20 07:21:21;;;;;;;29.40;26.95;;;3.10;99.90;;;;;;5009744;28;20041;-75
2022/01/20 07:23:48;;;;;;;28.95;26.85;;;3.00;99.90;;;;;;5009942;28;20377;-75
2022/01/20 07:26:14;;;;;;;28.08;25.58;;;3.00;99.90;;;;;;5008016;28;20034;-75
2022/01/20 07:28:39;;;;;;;27.73;25.52;;;3.00;99.90;;;;;;5009465;28;20029;-75
2022/01/20 07:31:07;;;;;;;28.73;26.50;;;3.00;99.90;;;;;;4991317;28;20515;-74
2022/01/20 07:33:33;;;;;;;28.42;25.55;;;3.00;99.90;;;;;;5007666;28;20053;-75
2022/01/20 07:35:58;;;;;;;27.50;25.40;;;3.00;99.90;;;;;;5006973;28;20026;-75
2022/01/20 07:38:25;;;;;;;27.90;25.98;;;3.00;99.90;;;;;;5009202;28;20026;-75
2022/01/20 07:40:52;;;;;;;27.25;25.20;;;3.00;99.90;;;;;;5008816;28;20473;-74
2022/01/20 07:43:18;;;;;;;27.92;25.50;;;3.00;99.90;;;;;;5009370;28;20080;-75
2022/01/20 07:45:44;;;;;;;28.48;25.90;;;3.00;99.90;;;;;;5007836;28;20496;-75
2022/01/20 07:48:10;;;;;;;27.95;25.63;;;2.90;99.90;;;;;;5007727;28;20100;-75
2022/01/20 07:50:37;;;;;;;27.40;24.85;;;2.90;99.90;;;;;;5008875;28;20030;-75
2022/01/20 07:53:03;;;;;;;30.67;25.88;;;2.90;99.90;;;;;;5008311;28;20026;-76
2022/01/20 07:55:29;;;;;;;;;;;2.90;99.90;;;;;;5009210;28;20468;-76
2022/01/20 07:57:55;;;;;;;29.80;27.02;;;2.90;99.90;;;;;;5008794;28;19932;-76
2022/01/20 08:00:21;;;;;;;31.05;27.80;;;2.90;99.90;;;;;;5008554;28;20076;-75
2022/01/20 08:02:48;;;;;;;29.98;27.20;;;2.90;99.90;;;;;;5008885;28;20028;-76
2022/01/20 08:05:14;;;;;;;27.95;25.73;;;2.90;99.90;;;;;;4990380;28;20026;-76
2022/01/20 08:07:40;;;;;;;31.58;28.75;;;2.90;99.90;;;;;;5008590;28;20083;-76
2022/01/20 08:10:07;;;;;;;29.05;26.65;;;2.90;99.90;;;;;;4990596;28;20038;-77
2022/01/20 08:12:33;;;;;;;29.13;26.80;;;2.90;99.90;;;;;;5008611;28;20030;-77
2022/01/20 08:14:59;;;;;;;27.70;25.63;;;2.90;99.90;;;;;;5006839;28;20373;-78
2022/01/20 08:17:26;;;;;;;28.90;26.38;;;2.90;99.90;;;;;;5008591;28;20060;-75
2022/01/20 08:19:52;;;;;;;28.48;26.20;;;2.90;99.90;;;;;;5006986;28;20180;-76
2022/01/20 08:22:21;;;;;;;30.27;27.65;;;2.90;99.90;;;;;;5006731;28;20038;-76
2022/01/20 08:24:52;;;;;;;27.45;25.55;;;2.90;99.90;;;;;;5008229;28;20033;-76
2022/01/20 08:27:19;;;;;;;28.75;26.15;;;2.90;99.90;;;;;;5007014;28;20129;-77
2022/01/20 08:29:45;;;;;;;28.00;25.88;;;2.90;99.90;;;;;;5007030;28;20062;-76
2022/01/20 08:32:11;;;;;;;28.10;25.77;;;2.90;99.90;;;;;;5007714;28;20037;-76
2022/01/20 08:34:36;;;;;;;26.25;24.38;;;2.90;99.90;;;;;;5006542;28;20026;-76
2022/01/20 08:37:03;;;;;;;29.60;27.15;;;2.90;99.90;;;;;;5008412;28;20029;-76
2022/01/20 08:42:03;;;;;;;28.33;25.70;;;3.00;99.90;;;;;;5008262;28;19961;-76
2022/01/20 08:44:28;;;;;;;28.08;25.83;;;3.10;99.90;;;;;;4990499;28;20069;-76
2022/01/20 08:46:57;;;;;;;28.40;25.80;;;3.20;99.90;;;;;;5007828;28;20084;-76
2022/01/20 08:49:22;;;;;;;25.75;23.85;;;3.30;99.90;;;;;;5006730;28;20484;-76
2022/01/20 08:51:48;;;;;;;25.63;23.42;;;3.50;99.90;;;;;;5007493;28;20030;-76
2022/01/20 08:54:14;;;;;;;26.10;24.48;;;3.60;99.90;;;;;;5006052;28;20041;-76
2022/01/20 08:56:40;;;;;;;26.67;24.25;;;3.70;99.90;;;;;;5008073;28;20026;-76
2022/01/20 08:59:07;;;;;;;24.65;22.77;;;3.80;99.90;;;;;;5014771;28;20125;-76
2022/01/20 09:01:35;;;;;;;25.02;22.85;;;3.90;99.90;;;;;;5023901;28;20523;-77
2022/01/20 09:04:01;;;;;;;25.50;23.40;;;4.00;99.90;;;;;;5025959;28;20537;-77
2022/01/20 09:06:27;;;;;;;25.60;23.35;;;4.10;99.90;;;;;;5027948;28;20030;-76
2022/01/20 09:08:53;;;;;;;24.80;22.83;;;4.20;99.90;;;;;;5018604;28;20371;-77
2022/01/20 09:11:21;;;;;;;25.40;23.48;;;4.30;99.90;;;;;;5010304;28;20049;-77
2022/01/20 09:16:32;;;;;;;24.35;22.40;;;4.50;99.90;;;;;;5028012;28;20036;-77
2022/01/20 09:18:58;;;;;;;21.83;19.88;;;4.50;99.90;;;;;;5026964;28;20032;-77
2022/01/20 09:21:25;;;;;;;22.58;20.40;;;4.50;99.90;;;;;;5026967;28;20065;-77
2022/01/20 09:23:51;;;;;;;20.55;18.80;;;4.60;99.90;;;;;;5026847;28;20029;-77
2022/01/20 09:26:17;;;;;;;20.83;18.90;;;4.60;99.90;;;;;;5015638;28;20777;-76
2022/01/20 09:28:43;;;;;;;23.85;21.80;;;4.70;99.90;;;;;;5028161;28;20422;-77
2022/01/20 09:31:10;;;;;;;23.40;21.20;;;4.70;99.90;;;;;;5026994;28;20033;-76
2022/01/20 09:33:35;;;;;;;;;;;4.80;99.90;;;;;;5025971;28;20392;-77
2022/01/20 09:36:07;;;;;;;23.05;20.60;;;4.80;99.90;;;;;;5026253;28;19909;-76
2022/01/20 09:38:33;;;;;;;21.42;19.67;;;4.90;99.90;;;;;;5041426;28;20021;-75
2022/01/20 09:41:00;;;;;;;24.73;22.13;;;5.00;99.90;;;;;;5036898;28;20444;-75
2022/01/20 09:43:26;;;;;;;24.02;22.02;;;5.00;99.90;;;;;;5040760;28;20037;-77
2022/01/20 09:45:55;;;;;;;24.20;21.90;;;5.00;99.90;;;;;;5036318;28;20096;-76
2022/01/20 09:48:22;;;;;;;24.90;21.98;;;5.10;99.90;;;;;;5036128;28;20375;-77
2022/01/20 09:50:49;;;;;;;26.77;22.48;;;5.10;99.90;;;;;;5032863;28;20041;-76
2022/01/20 09:53:16;;;;;;;22.90;20.50;;;5.10;99.90;;;;;;5010666;28;20096;-76
2022/01/20 09:55:42;;;;;;;21.67;18.98;;;5.20;99.90;;;;;;5026673;28;20024;-77
2022/01/20 09:58:09;;;;;;;22.38;17.55;;;5.30;99.90;;;;;;5027537;28;20022;-77
2022/01/20 10:00:37;;;;;;;18.58;16.70;;;5.50;99.90;;;;;;5028502;28;20035;-77
2022/01/20 10:03:12;;;;;;;17.42;15.93;;;5.60;99.90;;;;;;5029776;28;20387;-76
2022/01/20 10:05:44;;;;;;;23.30;16.60;;;5.70;99.90;;;;;;5029603;28;20027;-76
2022/01/20 10:08:30;;;;;;;16.67;15.13;;;5.80;99.90;;;;;;5028889;28;20119;-77
2022/01/20 10:10:58;;;;;;;13.30;11.32;;;6.00;99.90;;;;;;5027980;28;20116;-77
2022/01/20 10:13:30;;;;;;;15.35;7.82;;;6.20;99.90;;;;;;5029536;28;20021;-77
2022/01/20 10:16:06;;;;;;;17.08;5.97;;;6.90;99.90;;;;;;5031052;28;20079;-76
2022/01/20 10:18:44;;;;;;;13.20;5.30;;;7.80;99.90;;;;;;5028255;28;20032;-77
2022/01/20 10:21:10;;;;;;;11.48;6.55;;;8.70;99.90;;;;;;5033192;28;20438;-77
2022/01/20 10:23:38;;;;;;;13.50;7.68;;;9.10;99.90;;;;;;5013602;28;20112;-77
2022/01/20 10:26:13;;;;;;;12.43;9.70;;;9.10;99.30;;;;;;5029554;28;20025;-77
2022/01/20 10:28:50;;;;;;;17.67;11.70;;;9.00;99.00;;;;;;5031495;28;20026;-77
2022/01/20 10:31:19;;;;;;;12.60;10.60;;;8.80;98.70;;;;;;5031570;28;20487;-77
2022/01/20 10:33:46;;;;;;;14.00;10.63;;;8.70;98.60;;;;;;5013866;28;20076;-77
2022/01/20 10:36:12;;;;;;;16.52;13.93;;;8.50;98.50;;;;;;5036966;28;20028;-77
2022/01/20 10:38:52;;;;;;;14.27;13.00;;;8.40;98.30;;;;;;5029927;28;20030;-76
2022/01/20 10:41:38;;;;;;;15.50;11.85;;;8.30;98.20;;;;;;5039782;28;20106;-77
2022/01/20 10:44:25;;;;;;;15.55;12.90;;;8.30;98.40;;;;;;5028566;28;20072;-75
2022/01/20 10:46:58;;;;;;;14.70;11.00;;;8.30;98.40;;;;;;5029751;28;20369;-76
2022/01/20 10:49:30;;;;;;;14.10;12.48;;;8.40;98.30;;;;;;5031976;28;20388;-76
2022/01/20 10:52:05;;;;;;;18.00;11.68;;;8.40;98.20;;;;;;5029810;28;20025;-78
2022/01/20 10:54:40;;;;;;;12.65;10.75;;;8.40;98.00;;;;;;5029885;28;20029;-73
2022/01/20 10:57:07;;;;;;;15.63;12.52;;;8.40;97.90;;;;;;5031127;28;20025;-75
2022/01/20 10:59:34;;;;;;;20.10;15.25;;;8.40;97.90;;;;;;5030084;28;20117;-78
2022/01/20 11:02:09;;;;;;;15.65;13.02;;;8.40;97.80;;;;;;5030428;28;20041;-79
2022/01/20 11:04:40;;;;;;;15.43;14.02;;;8.30;97.60;;;;;;5025305;28;20420;-77
2022/01/20 11:07:08;;;;;;;16.63;14.82;;;8.20;97.40;;;;;;5030218;28;20055;-75
2022/01/20 11:09:38;;;;;;;15.75;14.18;;;8.20;97.40;;;;;;5030549;28;20026;-76
2022/01/20 11:12:04;;;;;;;17.85;14.05;;;8.10;97.40;;;;;;5031958;28;20443;-75
2022/01/20 11:14:33;;;;;;;17.85;16.13;;;8.10;97.50;;;;;;5030285;28;20124;-75
2022/01/20 11:16:59;;;;;;;16.77;14.70;;;8.10;97.60;;;;;;5031092;28;20100;-75
2022/01/20 11:19:26;;;;;;;14.77;13.27;;;8.20;97.60;;;;;;5029889;28;20104;-75
2022/01/20 11:22:03;;;;;;;14.75;13.35;;;8.20;97.70;;;;;;5029225;28;20409;-75
2022/01/20 11:24:29;;;;;;;16.05;14.07;;;8.20;97.60;;;;;;5023266;28;20025;-74
2022/01/20 11:26:57;;;;;;;15.88;11.82;;;8.30;97.60;;;;;;5029844;28;20036;-75
2022/01/20 11:29:27;;;;;;;14.73;13.25;;;8.30;97.60;;;;;;5028683;28;20033;-76
2022/01/20 11:31:53;;;;;;;16.70;15.25;;;8.40;97.60;;;;;;5030212;28;20018;-76
2022/01/20 11:34:20;;;;;;;15.45;13.85;;;8.40;97.50;;;;;;5029151;28;20101;-74
2022/01/20 11:36:48;;;;;;;17.65;15.60;;;8.40;97.40;;;;;;5029104;28;20036;-75
2022/01/20 11:39:14;;;;;;;21.60;15.90;;;8.40;97.30;;;;;;5028783;28;20487;-74
2022/01/20 11:41:49;;;;;;;17.33;14.93;;;8.40;97.20;;;;;;5029913;28;20528;-74
2022/01/20 11:44:26;;;;;;;15.50;13.90;;;8.40;97.10;;;;;;5027993;28;20128;-76
2022/01/20 11:46:53;;;;;;;15.35;13.77;;;8.40;97.10;;;;;;5025629;28;20109;-75
2022/01/20 11:49:21;;;;;;;20.25;11.73;;;8.40;97.10;;;;;;5029887;28;20467;-74
2022/01/20 11:51:56;;;;;;;15.40;13.75;;;8.50;97.20;;;;;;5028116;28;20121;-75
2022/01/20 11:54:40;;;;;;;17.27;15.63;;;8.50;97.20;;;;;;5028484;28;20025;-75
2022/01/20 11:57:12;;;;;;;16.98;15.43;;;8.50;97.40;;;;;;5028766;28;20033;-77
2022/01/20 11:59:45;;;;;;;16.75;12.40;;;8.50;97.10;;;;;;5028715;28;20025;-76
2022/01/20 12:02:23;;;;;;;18.40;11.60;;;8.50;97.10;;;;;;5029870;28;20026;-76
2022/01/20 12:04:51;;;;;;;17.63;11.23;;;8.60;97.30;;;;;;5030135;28;20033;-77
2022/01/20 12:07:27;;;;;;;13.32;11.07;;;8.60;97.30;;;;;;5028820;28;20085;-76
2022/01/20 12:10:05;;;;;;;13.95;10.07;;;8.60;97.30;;;;;;5029040;28;20105;-76
2022/01/20 12:12:32;;;;;;;17.00;13.13;;;8.60;97.30;;;;;;5030387;28;20025;-76
2022/01/20 12:15:09;;;;;;;20.13;11.07;;;8.60;97.40;;;;;;5008702;28;20049;-76
2022/01/20 12:17:36;;;;;;;20.52;10.25;;;8.60;97.50;;;;;;5019847;28;20017;-74
2022/01/20 12:20:03;;;;;;;17.63;10.52;;;8.70;97.60;;;;;;5029520;28;20045;-77
2022/01/20 12:22:29;;;;;;;22.13;10.50;;;8.90;97.60;;;;;;5029878;28;20025;-78
2022/01/20 12:24:57;;;;;;;23.20;13.18;;;9.10;97.60;;;;;;5012572;28;20043;-79
2022/01/20 12:27:25;;;;;;;18.75;9.73;;;9.20;97.40;;;;;;5028594;28;20041;-79
2022/01/20 12:29:51;;;;;;;16.80;9.30;;;9.30;97.20;;;;;;5030630;28;20024;-81
2022/01/20 12:32:21;;;;;;;13.30;10.20;;;9.30;97.20;;;;;;5027932;28;20033;-78
2022/01/20 12:34:58;;;;;;;19.67;11.88;;;9.30;97.10;;;;;;5012097;28;20033;-80
2022/01/20 12:37:34;;;;;;;;;;;9.30;97.00;;;;;;5030429;28;20593;-80
2022/01/20 12:39:59;;;;;;;14.65;13.30;;;9.40;96.90;;;;;;5029344;28;20440;-83
2022/01/20 12:42:34;;;;;;;20.92;14.18;;;9.30;96.60;;;;;;5030558;28;20030;-79
2022/01/20 12:45:55;;;;;;;18.80;13.55;;;9.30;96.50;;;;;;5028895;28;20057;-80
2022/01/20 12:47:51;;;;;;;19.73;14.68;;;9.30;96.50;;;;;;5022015;28;20483;-76
2022/01/20 12:50:17;;;;;;;21.42;14.13;;;9.30;96.70;;;;;;5027435;28;20054;-80
2022/01/20 12:52:50;;;;;;;22.17;13.77;;;9.40;96.70;;;;;;5012774;28;20036;-78
2022/01/20 12:55:20;;;;;;;15.55;12.88;;;9.50;96.50;;;;;;5029779;28;20372;-77
2022/01/20 12:57:46;;;;;;;16.30;14.02;;;9.50;96.50;;;;;;5028822;28;20029;-77
2022/01/20 13:00:12;;;;;;;16.88;12.68;;;9.50;96.40;;;;;;5029496;28;20521;-76
2022/01/20 13:02:38;;;;;;;16.02;11.38;;;9.50;96.40;;;;;;5028011;28;20068;-79
2022/01/20 13:05:05;;;;;;;20.55;12.63;;;9.60;96.40;;;;;;5011513;28;20061;-79
2022/01/20 13:07:35;;;;;;;17.52;13.02;;;9.60;96.40;;;;;;5029420;28;20383;-76
2022/01/20 13:10:20;;;;;;;19.60;13.48;;;9.70;96.30;;;;;;5028887;28;20074;-77
2022/01/20 13:12:46;;;;;;;16.27;13.57;;;9.70;96.20;;;;;;5029018;28;20514;-77
2022/01/20 13:15:18;;;;;;;;;;;9.70;96.10;;;;;;5028388;28;20374;-77
2022/01/20 13:17:48;;;;;;;13.60;11.25;;;9.70;96.30;;;;;;5027967;28;20429;-78
2022/01/20 13:20:19;;;;;;;14.77;9.00;;;9.80;96.40;;;;;;5028621;28;20033;-77
2022/01/20 13:22:55;;;;;;;12.40;9.70;;;9.90;96.60;;;;;;5029541;28;20018;-78
2022/01/20 13:25:30;;;;;;;16.05;9.02;;;9.90;96.40;;;;;;5029951;28;20360;-78
2022/01/20 13:28:02;;;;;;;13.45;8.45;;;9.90;96.30;;;;;;5012834;28;20061;-78
2022/01/20 13:30:55;;;;;;;13.95;8.02;;;10.00;96.30;;;;;;5028152;28;20305;-68
2022/01/20 13:33:31;;;;;;;11.65;7.72;;;10.10;96.20;;;;;;5026317;28;20049;-78
2022/01/20 13:36:01;;;;;;;16.75;8.18;;;10.10;96.00;;;;;;5033303;28;20010;-80
2022/01/20 13:38:41;;;;;;;22.92;10.90;;;10.10;96.00;;;;;;5033312;28;20643;-79
2022/01/20 13:41:19;;;;;;;23.58;10.98;;;10.10;95.90;;;;;;5031824;28;20025;-78
2022/01/20 13:46:39;;;;;;;15.40;12.13;;;10.20;95.90;;;;;;5031766;28;20060;-78
2022/01/20 13:49:10;;;;;;;15.85;11.27;;;10.10;95.70;;;;;;5030959;28;20633;-77
2022/01/20 13:51:36;;;;;;;17.85;11.38;;;10.10;95.70;;;;;;5031905;28;20025;-79
2022/01/20 13:54:02;;;;;;;17.52;10.90;;;10.10;95.80;;;;;;5031965;28;20019;-76
2022/01/20 13:56:29;;;;;;;12.07;10.57;;;10.10;95.80;;;;;;5031453;28;20379;-77
2022/01/20 13:59:10;;;;;;;17.98;11.50;;;10.10;95.80;;;;;;5030038;28;20026;-78